createdAt,value
2022-09-29T00:00:12.000Z,-77.00
2022-09-29T00:01:11.000Z,-77.00
2022-09-29T00:02:10.000Z,-76.00
2022-09-29T00:03:10.000Z,-77.00
2022-09-29T00:04:11.000Z,-78.00
2022-09-29T00:05:10.000Z,-76.00
2022-09-29T00:06:13.000Z,-77.00
2022-09-29T00:07:10.000Z,-77.00
2022-09-29T00:08:10.000Z,-77.00
2022-09-29T00:09:10.000Z,-78.00
2022-09-29T00:10:11.000Z,-76.00
2022-09-29T00:11:13.000Z,-76.00
2022-09-29T00:12:10.000Z,-77.00
2022-09-29T00:13:12.000Z,-76.00
2022-09-29T00:14:10.000Z,-77.00
2022-09-29T00:15:11.000Z,-77.00
2022-09-29T00:16:11.000Z,-77.00
2022-09-29T00:17:12.000Z,-77.00
2022-09-29T00:18:10.000Z,-78.00
2022-09-29T00:19:10.000Z,-77.00
2022-09-29T00:20:10.000Z,-76.00
2022-09-29T00:21:16.000Z,-75.00
2022-09-29T00:22:10.000Z,-77.00
2022-09-29T00:23:10.000Z,-77.00
2022-09-29T00:24:11.000Z,-76.00
2022-09-29T00:25:10.000Z,-77.00
2022-09-29T00:26:16.000Z,-76.00
2022-09-29T00:27:13.000Z,-76.00
2022-09-29T00:28:10.000Z,-76.00
2022-09-29T00:29:11.000Z,-77.00
2022-09-29T00:30:11.000Z,-77.00
2022-09-29T00:31:10.000Z,-77.00
2022-09-29T00:32:11.000Z,-77.00
2022-09-29T00:33:10.000Z,-76.00
2022-09-29T00:34:11.000Z,-76.00
2022-09-29T00:35:10.000Z,-76.00
2022-09-29T00:36:13.000Z,-76.00
2022-09-29T00:37:10.000Z,-76.00
2022-09-29T00:38:10.000Z,-76.00
2022-09-29T00:39:10.000Z,-75.00
2022-09-29T00:40:11.000Z,-76.00
2022-09-29T00:41:20.000Z,-76.00
2022-09-29T00:42:10.000Z,-77.00
2022-09-29T00:43:19.000Z,-77.00
2022-09-29T00:44:31.000Z,-73.00
2022-09-29T00:45:15.000Z,-77.00
2022-09-29T00:46:12.000Z,-77.00
2022-09-29T00:47:16.000Z,-76.00
2022-09-29T00:48:14.000Z,-76.00
2022-09-29T00:49:31.000Z,-74.00
2022-09-29T00:50:18.000Z,-76.00
2022-09-29T00:51:11.000Z,-76.00
2022-09-29T00:52:24.000Z,-76.00
2022-09-29T00:53:13.000Z,-77.00
2022-09-29T00:54:11.000Z,-77.00
2022-09-29T00:55:18.000Z,-77.00
2022-09-29T00:56:13.000Z,-76.00
2022-09-29T00:57:16.000Z,-76.00
2022-09-29T00:58:25.000Z,-76.00
2022-09-29T00:59:25.000Z,-75.00
2022-09-29T01:00:13.000Z,-77.00
2022-09-29T01:01:12.000Z,-76.00
2022-09-29T01:02:13.000Z,-75.00
2022-09-29T01:03:15.000Z,-76.00
2022-09-29T01:04:17.000Z,-77.00
2022-09-29T01:05:16.000Z,-75.00
2022-09-29T01:06:18.000Z,-76.00
2022-09-29T01:07:11.000Z,-77.00
2022-09-29T01:08:21.000Z,-76.00
2022-09-29T01:09:15.000Z,-76.00
2022-09-29T01:10:14.000Z,-76.00
2022-09-29T01:11:12.000Z,-77.00
2022-09-29T01:12:11.000Z,-77.00
2022-09-29T01:13:11.000Z,-76.00
2022-09-29T01:14:12.000Z,-76.00
2022-09-29T01:15:17.000Z,-75.00
2022-09-29T01:16:11.000Z,-77.00
2022-09-29T01:17:12.000Z,-77.00
2022-09-29T01:18:11.000Z,-77.00
2022-09-29T01:19:21.000Z,-77.00
2022-09-29T01:20:18.000Z,-75.00
2022-09-29T01:21:22.000Z,-77.00
2022-09-29T01:22:26.000Z,-75.00
2022-09-29T01:23:34.000Z,-74.00
2022-09-29T01:24:21.000Z,-74.00
2022-09-29T01:25:34.000Z,-74.00
2022-09-29T01:26:31.000Z,-74.00
2022-09-29T01:27:29.000Z,-75.00
2022-09-29T01:28:21.000Z,-74.00
2022-09-29T01:29:21.000Z,-74.00
2022-09-29T01:30:19.000Z,-75.00
2022-09-29T01:31:36.000Z,-76.00
2022-09-29T01:32:22.000Z,-77.00
2022-09-29T01:33:23.000Z,-75.00
2022-09-29T01:34:31.000Z,-74.00
2022-09-29T01:35:26.000Z,-74.00
2022-09-29T01:36:36.000Z,-77.00
2022-09-29T01:37:31.000Z,-74.00
2022-09-29T01:38:31.000Z,-74.00
2022-09-29T01:39:22.000Z,-77.00
2022-09-29T01:40:18.000Z,-77.00
2022-09-29T01:41:19.000Z,-76.00
2022-09-29T01:42:17.000Z,-74.00
2022-09-29T01:43:31.000Z,-77.00
2022-09-29T01:44:27.000Z,-76.00
2022-09-29T01:45:24.000Z,-76.00
2022-09-29T01:46:20.000Z,-75.00
2022-09-29T01:47:18.000Z,-76.00
2022-09-29T01:48:17.000Z,-76.00
2022-09-29T01:49:13.000Z,-76.00
2022-09-29T01:50:16.000Z,-75.00
2022-09-29T01:51:17.000Z,-76.00
2022-09-29T01:52:19.000Z,-74.00
2022-09-29T01:53:17.000Z,-76.00
2022-09-29T01:54:17.000Z,-75.00
2022-09-29T01:55:19.000Z,-75.00
2022-09-29T01:56:18.000Z,-76.00
2022-09-29T01:57:20.000Z,-75.00
2022-09-29T01:58:18.000Z,-76.00
2022-09-29T01:59:21.000Z,-76.00
2022-09-29T02:00:15.000Z,-77.00
2022-09-29T02:01:15.000Z,-76.00
2022-09-29T02:02:18.000Z,-77.00
2022-09-29T02:03:34.000Z,-76.00
2022-09-29T02:04:22.000Z,-75.00
2022-09-29T02:05:34.000Z,-75.00
2022-09-29T02:06:19.000Z,-77.00
2022-09-29T02:07:18.000Z,-75.00
2022-09-29T02:08:15.000Z,-75.00
2022-09-29T02:09:18.000Z,-76.00
2022-09-29T02:10:20.000Z,-76.00
2022-09-29T02:11:13.000Z,-75.00
2022-09-29T02:12:16.000Z,-77.00
2022-09-29T02:13:14.000Z,-76.00
2022-09-29T02:14:22.000Z,-76.00
2022-09-29T02:15:17.000Z,-76.00
2022-09-29T02:16:16.000Z,-76.00
2022-09-29T02:17:18.000Z,-76.00
2022-09-29T02:18:18.000Z,-76.00
2022-09-29T02:19:17.000Z,-76.00
2022-09-29T02:20:11.000Z,-76.00
2022-09-29T02:21:11.000Z,-77.00
2022-09-29T02:22:12.000Z,-77.00
2022-09-29T02:23:11.000Z,-77.00
2022-09-29T02:24:12.000Z,-77.00
2022-09-29T02:25:15.000Z,-75.00
2022-09-29T02:26:13.000Z,-76.00
2022-09-29T02:27:12.000Z,-76.00
2022-09-29T02:28:12.000Z,-76.00
2022-09-29T02:29:12.000Z,-76.00
2022-09-29T02:30:11.000Z,-77.00
2022-09-29T02:31:12.000Z,-74.00
2022-09-29T02:32:12.000Z,-76.00
2022-09-29T02:33:21.000Z,-77.00
2022-09-29T02:34:17.000Z,-76.00
2022-09-29T02:35:13.000Z,-75.00
2022-09-29T02:36:21.000Z,-74.00
2022-09-29T02:37:31.000Z,-74.00
2022-09-29T02:38:34.000Z,-74.00
2022-09-29T02:39:31.000Z,-76.00
2022-09-29T02:40:25.000Z,-75.00
2022-09-29T02:41:27.000Z,-75.00
2022-09-29T02:42:28.000Z,-76.00
2022-09-29T02:43:31.000Z,-74.00
2022-09-29T02:44:21.000Z,-74.00
2022-09-29T02:45:39.000Z,-77.00
2022-09-29T02:46:21.000Z,-73.00
2022-09-29T02:47:21.000Z,-73.00
2022-09-29T02:48:30.000Z,-75.00
2022-09-29T02:49:21.000Z,-73.00
2022-09-29T02:50:21.000Z,-73.00
2022-09-29T02:51:27.000Z,-76.00
2022-09-29T02:52:31.000Z,-73.00
2022-09-29T02:53:23.000Z,-76.00
2022-09-29T02:54:21.000Z,-73.00
2022-09-29T02:55:17.000Z,-75.00
2022-09-29T02:56:34.000Z,-74.00
2022-09-29T02:57:24.000Z,-76.00
2022-09-29T02:58:19.000Z,-74.00
2022-09-29T02:59:23.000Z,-75.00
2022-09-29T03:00:16.000Z,-76.00
2022-09-29T03:01:11.000Z,-76.00
2022-09-29T03:02:13.000Z,-76.00
2022-09-29T03:03:10.000Z,-76.00
2022-09-29T03:04:10.000Z,-77.00
2022-09-29T03:05:14.000Z,-76.00
2022-09-29T03:06:11.000Z,-76.00
2022-09-29T03:07:10.000Z,-77.00
2022-09-29T03:08:10.000Z,-77.00
2022-09-29T03:09:10.000Z,-77.00
2022-09-29T03:10:12.000Z,-76.00
2022-09-29T03:11:10.000Z,-76.00
2022-09-29T03:12:10.000Z,-77.00
2022-09-29T03:13:10.000Z,-77.00
2022-09-29T03:14:11.000Z,-77.00
2022-09-29T03:15:10.000Z,-77.00
2022-09-29T03:16:10.000Z,-76.00
2022-09-29T03:17:10.000Z,-77.00
2022-09-29T03:18:10.000Z,-77.00
2022-09-29T03:19:10.000Z,-76.00
2022-09-29T03:20:10.000Z,-77.00
2022-09-29T03:21:10.000Z,-77.00
2022-09-29T03:22:10.000Z,-76.00
2022-09-29T03:23:10.000Z,-77.00
2022-09-29T03:24:10.000Z,-76.00
2022-09-29T03:25:13.000Z,-76.00
2022-09-29T03:26:10.000Z,-77.00
2022-09-29T03:27:10.000Z,-77.00
2022-09-29T03:28:10.000Z,-77.00
2022-09-29T03:29:10.000Z,-77.00
2022-09-29T03:30:11.000Z,-77.00
2022-09-29T03:31:10.000Z,-76.00
2022-09-29T03:32:10.000Z,-77.00
2022-09-29T03:33:10.000Z,-77.00
2022-09-29T03:34:10.000Z,-75.00
2022-09-29T03:35:10.000Z,-77.00
2022-09-29T03:36:10.000Z,-77.00
2022-09-29T03:37:10.000Z,-76.00
2022-09-29T03:38:10.000Z,-77.00
2022-09-29T03:39:10.000Z,-77.00
2022-09-29T03:40:10.000Z,-77.00
2022-09-29T03:41:10.000Z,-77.00
2022-09-29T03:42:10.000Z,-77.00
2022-09-29T03:43:10.000Z,-76.00
2022-09-29T03:44:11.000Z,-76.00
2022-09-29T03:45:10.000Z,-77.00
2022-09-29T03:46:10.000Z,-77.00
2022-09-29T03:47:10.000Z,-76.00
2022-09-29T03:48:10.000Z,-77.00
2022-09-29T03:49:13.000Z,-76.00
2022-09-29T03:50:11.000Z,-76.00
2022-09-29T03:51:10.000Z,-77.00
2022-09-29T03:52:10.000Z,-76.00
2022-09-29T03:53:11.000Z,-76.00
2022-09-29T03:54:10.000Z,-76.00
2022-09-29T03:55:10.000Z,-77.00
2022-09-29T03:56:10.000Z,-75.00
2022-09-29T03:57:10.000Z,-75.00
2022-09-29T03:58:10.000Z,-74.00
2022-09-29T03:59:10.000Z,-74.00
2022-09-29T04:00:11.000Z,-76.00
2022-09-29T04:01:10.000Z,-76.00
2022-09-29T04:02:11.000Z,-76.00
2022-09-29T04:03:10.000Z,-76.00
2022-09-29T04:04:11.000Z,-78.00
2022-09-29T04:05:11.000Z,-77.00
2022-09-29T04:06:11.000Z,-76.00
2022-09-29T04:07:10.000Z,-76.00
2022-09-29T04:08:10.000Z,-76.00
2022-09-29T04:09:10.000Z,-76.00
2022-09-29T04:10:10.000Z,-76.00
2022-09-29T04:11:10.000Z,-77.00
2022-09-29T04:12:10.000Z,-77.00
2022-09-29T04:13:10.000Z,-75.00
2022-09-29T04:14:10.000Z,-76.00
2022-09-29T04:15:10.000Z,-77.00
2022-09-29T04:16:10.000Z,-76.00
2022-09-29T04:17:10.000Z,-76.00
2022-09-29T04:18:10.000Z,-76.00
2022-09-29T04:19:10.000Z,-77.00
2022-09-29T04:20:10.000Z,-75.00
2022-09-29T04:21:10.000Z,-76.00
2022-09-29T04:22:14.000Z,-78.00
2022-09-29T04:23:11.000Z,-77.00
2022-09-29T04:24:11.000Z,-78.00
2022-09-29T04:25:10.000Z,-79.00
2022-09-29T04:26:10.000Z,-79.00
2022-09-29T04:27:10.000Z,-79.00
2022-09-29T04:28:11.000Z,-77.00
2022-09-29T04:29:10.000Z,-79.00
2022-09-29T04:30:11.000Z,-79.00
2022-09-29T04:31:10.000Z,-78.00
2022-09-29T04:32:10.000Z,-79.00
2022-09-29T04:33:10.000Z,-78.00
2022-09-29T04:34:11.000Z,-79.00
2022-09-29T04:35:11.000Z,-78.00
2022-09-29T04:36:11.000Z,-78.00
2022-09-29T04:37:11.000Z,-78.00
2022-09-29T04:38:11.000Z,-78.00
2022-09-29T04:39:12.000Z,-79.00
2022-09-29T04:40:11.000Z,-78.00
2022-09-29T04:41:11.000Z,-78.00
2022-09-29T04:42:11.000Z,-78.00
2022-09-29T04:43:11.000Z,-78.00
2022-09-29T04:44:11.000Z,-79.00
2022-09-29T04:45:11.000Z,-79.00
2022-09-29T04:46:13.000Z,-79.00
2022-09-29T04:47:11.000Z,-78.00
2022-09-29T04:48:11.000Z,-79.00
2022-09-29T04:49:11.000Z,-78.00
2022-09-29T04:50:11.000Z,-78.00
2022-09-29T04:51:11.000Z,-78.00
2022-09-29T04:52:11.000Z,-78.00
2022-09-29T04:53:11.000Z,-79.00
2022-09-29T04:54:11.000Z,-79.00
2022-09-29T04:55:11.000Z,-78.00
2022-09-29T04:56:11.000Z,-78.00
2022-09-29T04:57:11.000Z,-79.00
2022-09-29T04:58:11.000Z,-79.00
2022-09-29T04:59:14.000Z,-78.00
2022-09-29T05:00:12.000Z,-76.00
2022-09-29T05:01:52.000Z,-75.00
2022-09-29T05:02:51.000Z,-75.00
2022-09-29T05:03:30.000Z,-75.00
2022-09-29T05:04:12.000Z,-78.00
2022-09-29T05:05:10.000Z,-79.00
2022-09-29T05:06:10.000Z,-77.00
2022-09-29T05:07:10.000Z,-76.00
2022-09-29T05:08:10.000Z,-76.00
2022-09-29T05:09:10.000Z,-78.00
2022-09-29T05:10:10.000Z,-78.00
2022-09-29T05:11:10.000Z,-77.00
2022-09-29T05:12:10.000Z,-76.00
2022-09-29T05:13:10.000Z,-77.00
2022-09-29T05:14:11.000Z,-78.00
2022-09-29T05:15:10.000Z,-78.00
2022-09-29T05:16:10.000Z,-78.00
2022-09-29T05:17:10.000Z,-79.00
2022-09-29T05:18:10.000Z,-79.00
2022-09-29T05:19:10.000Z,-78.00
2022-09-29T05:20:11.000Z,-78.00
2022-09-29T05:21:11.000Z,-78.00
2022-09-29T05:22:10.000Z,-78.00
2022-09-29T05:23:10.000Z,-76.00
2022-09-29T05:24:11.000Z,-78.00
2022-09-29T05:25:10.000Z,-76.00
2022-09-29T05:26:12.000Z,-77.00
2022-09-29T05:27:10.000Z,-75.00
2022-09-29T05:28:13.000Z,-77.00
2022-09-29T05:29:10.000Z,-76.00
2022-09-29T05:30:10.000Z,-76.00
2022-09-29T05:31:12.000Z,-78.00
2022-09-29T05:32:11.000Z,-77.00
2022-09-29T05:33:10.000Z,-75.00
2022-09-29T05:34:10.000Z,-78.00
2022-09-29T05:35:10.000Z,-79.00
2022-09-29T05:36:11.000Z,-79.00
2022-09-29T05:37:11.000Z,-77.00
2022-09-29T05:38:10.000Z,-78.00
2022-09-29T05:39:11.000Z,-75.00
2022-09-29T05:40:10.000Z,-77.00
2022-09-29T05:41:11.000Z,-78.00
2022-09-29T05:42:11.000Z,-77.00
2022-09-29T05:43:11.000Z,-77.00
2022-09-29T05:44:10.000Z,-77.00
2022-09-29T05:45:10.000Z,-77.00
2022-09-29T05:46:10.000Z,-76.00
2022-09-29T05:47:10.000Z,-77.00
2022-09-29T05:48:11.000Z,-77.00
2022-09-29T05:49:10.000Z,-76.00
2022-09-29T05:50:11.000Z,-75.00
2022-09-29T05:51:14.000Z,-78.00
2022-09-29T05:52:10.000Z,-78.00
2022-09-29T05:53:10.000Z,-77.00
2022-09-29T05:54:10.000Z,-79.00
2022-09-29T05:55:10.000Z,-76.00
2022-09-29T05:56:13.000Z,-77.00
2022-09-29T05:57:11.000Z,-78.00
2022-09-29T05:58:10.000Z,-78.00
2022-09-29T05:59:11.000Z,-79.00
2022-09-29T06:00:11.000Z,-77.00
2022-09-29T06:01:14.000Z,-78.00
2022-09-29T06:02:10.000Z,-79.00
2022-09-29T06:03:10.000Z,-78.00
2022-09-29T06:04:10.000Z,-78.00
2022-09-29T06:05:11.000Z,-78.00
2022-09-29T06:06:16.000Z,-78.00
2022-09-29T06:07:10.000Z,-78.00
2022-09-29T06:08:11.000Z,-78.00
2022-09-29T06:09:10.000Z,-78.00
2022-09-29T06:10:10.000Z,-78.00
2022-09-29T06:11:14.000Z,-77.00
2022-09-29T06:12:10.000Z,-78.00
2022-09-29T06:13:10.000Z,-78.00
2022-09-29T06:14:10.000Z,-78.00
2022-09-29T06:15:11.000Z,-78.00
2022-09-29T06:16:11.000Z,-75.00
2022-09-29T06:17:10.000Z,-75.00
2022-09-29T06:18:10.000Z,-73.00
2022-09-29T06:19:12.000Z,-75.00
2022-09-29T06:20:11.000Z,-76.00
2022-09-29T06:21:14.000Z,-74.00
2022-09-29T06:22:10.000Z,-76.00
2022-09-29T06:23:10.000Z,-75.00
2022-09-29T06:24:10.000Z,-74.00
2022-09-29T06:25:11.000Z,-75.00
2022-09-29T06:26:13.000Z,-73.00
2022-09-29T06:27:11.000Z,-77.00
2022-09-29T06:28:11.000Z,-77.00
2022-09-29T06:29:10.000Z,-76.00
2022-09-29T06:30:12.000Z,-76.00
2022-09-29T06:31:16.000Z,-75.00
2022-09-29T06:32:11.000Z,-76.00
2022-09-29T06:33:10.000Z,-76.00
2022-09-29T06:34:11.000Z,-77.00
2022-09-29T06:35:16.000Z,-75.00
2022-09-29T06:36:26.000Z,-78.00
2022-09-29T06:37:16.000Z,-78.00
2022-09-29T06:38:10.000Z,-79.00
2022-09-29T06:39:12.000Z,-78.00
2022-09-29T06:40:12.000Z,-79.00
2022-09-29T06:41:10.000Z,-78.00
2022-09-29T06:42:11.000Z,-79.00
2022-09-29T06:43:11.000Z,-78.00
2022-09-29T06:44:10.000Z,-77.00
2022-09-29T06:45:10.000Z,-76.00
2022-09-29T06:46:11.000Z,-78.00
2022-09-29T06:47:10.000Z,-79.00
2022-09-29T06:48:10.000Z,-77.00
2022-09-29T06:49:12.000Z,-77.00
2022-09-29T06:50:11.000Z,-76.00
2022-09-29T06:51:10.000Z,-77.00
2022-09-29T06:52:10.000Z,-77.00
2022-09-29T06:53:10.000Z,-77.00
2022-09-29T06:54:12.000Z,-77.00
2022-09-29T06:55:11.000Z,-77.00
2022-09-29T06:56:10.000Z,-78.00
2022-09-29T06:57:10.000Z,-78.00
2022-09-29T06:58:10.000Z,-76.00
2022-09-29T06:59:11.000Z,-77.00
2022-09-29T07:00:11.000Z,-78.00
2022-09-29T07:01:11.000Z,-77.00
2022-09-29T07:02:11.000Z,-77.00
2022-09-29T07:03:10.000Z,-77.00
2022-09-29T07:04:10.000Z,-78.00
2022-09-29T07:05:11.000Z,-77.00
2022-09-29T07:06:11.000Z,-78.00
2022-09-29T07:07:10.000Z,-79.00
2022-09-29T07:08:10.000Z,-78.00
2022-09-29T07:09:15.000Z,-77.00
2022-09-29T07:10:10.000Z,-77.00
2022-09-29T07:11:11.000Z,-77.00
2022-09-29T07:12:11.000Z,-78.00
2022-09-29T07:13:11.000Z,-77.00
2022-09-29T07:14:15.000Z,-77.00
2022-09-29T07:15:12.000Z,-77.00
2022-09-29T07:16:12.000Z,-77.00
2022-09-29T07:17:12.000Z,-78.00
2022-09-29T07:18:11.000Z,-77.00
2022-09-29T07:19:11.000Z,-77.00
2022-09-29T07:20:10.000Z,-78.00
2022-09-29T07:21:13.000Z,-77.00
2022-09-29T07:22:11.000Z,-77.00
2022-09-29T07:23:11.000Z,-75.00
2022-09-29T07:24:11.000Z,-77.00
2022-09-29T07:25:11.000Z,-76.00
2022-09-29T07:26:11.000Z,-76.00
2022-09-29T07:27:10.000Z,-77.00
2022-09-29T07:28:10.000Z,-72.00
2022-09-29T07:29:11.000Z,-74.00
2022-09-29T07:30:11.000Z,-74.00
2022-09-29T07:31:14.000Z,-73.00
2022-09-29T07:32:10.000Z,-74.00
2022-09-29T07:33:10.000Z,-73.00
2022-09-29T07:34:11.000Z,-73.00
2022-09-29T07:35:10.000Z,-74.00
2022-09-29T07:36:12.000Z,-73.00
2022-09-29T07:37:10.000Z,-72.00
2022-09-29T07:38:10.000Z,-73.00
2022-09-29T07:39:11.000Z,-74.00
2022-09-29T07:40:12.000Z,-73.00
2022-09-29T07:41:11.000Z,-73.00
2022-09-29T07:42:11.000Z,-73.00
2022-09-29T07:43:11.000Z,-74.00
2022-09-29T07:44:10.000Z,-74.00
2022-09-29T07:45:11.000Z,-74.00
2022-09-29T07:46:11.000Z,-74.00
2022-09-29T07:47:11.000Z,-72.00
2022-09-29T07:48:10.000Z,-73.00
2022-09-29T07:49:10.000Z,-74.00
2022-09-29T07:50:11.000Z,-74.00
2022-09-29T07:51:16.000Z,-73.00
2022-09-29T07:52:12.000Z,-73.00
2022-09-29T07:53:12.000Z,-73.00
2022-09-29T07:54:11.000Z,-73.00
2022-09-29T07:55:10.000Z,-73.00
2022-09-29T07:56:14.000Z,-73.00
2022-09-29T07:57:10.000Z,-73.00
2022-09-29T07:58:10.000Z,-73.00
2022-09-29T07:59:11.000Z,-72.00
2022-09-29T08:00:11.000Z,-74.00
2022-09-29T08:01:12.000Z,-74.00
2022-09-29T08:02:11.000Z,-75.00
2022-09-29T08:03:11.000Z,-76.00
2022-09-29T08:04:11.000Z,-75.00
2022-09-29T08:05:10.000Z,-76.00
2022-09-29T08:06:11.000Z,-76.00
2022-09-29T08:07:10.000Z,-75.00
2022-09-29T08:08:11.000Z,-76.00
2022-09-29T08:09:11.000Z,-76.00
2022-09-29T08:10:10.000Z,-76.00
2022-09-29T08:11:13.000Z,-75.00
2022-09-29T08:12:11.000Z,-76.00
2022-09-29T08:13:10.000Z,-75.00
2022-09-29T08:14:10.000Z,-75.00
2022-09-29T08:15:10.000Z,-76.00
2022-09-29T08:16:12.000Z,-75.00
2022-09-29T08:17:10.000Z,-76.00
2022-09-29T08:18:10.000Z,-77.00
2022-09-29T08:19:10.000Z,-76.00
2022-09-29T08:20:11.000Z,-75.00
2022-09-29T08:21:11.000Z,-75.00
2022-09-29T08:22:10.000Z,-76.00
2022-09-29T08:23:10.000Z,-76.00
2022-09-29T08:24:11.000Z,-75.00
2022-09-29T08:25:11.000Z,-77.00
2022-09-29T08:26:17.000Z,-77.00
2022-09-29T08:27:11.000Z,-77.00
2022-09-29T08:28:10.000Z,-76.00
2022-09-29T08:29:12.000Z,-75.00
2022-09-29T08:30:11.000Z,-77.00
2022-09-29T08:31:18.000Z,-76.00
2022-09-29T08:32:10.000Z,-77.00
2022-09-29T08:33:13.000Z,-76.00
2022-09-29T08:34:12.000Z,-76.00
2022-09-29T08:35:10.000Z,-76.00
2022-09-29T08:36:14.000Z,-76.00
2022-09-29T08:37:10.000Z,-75.00
2022-09-29T08:38:10.000Z,-75.00
2022-09-29T08:39:11.000Z,-76.00
2022-09-29T08:40:11.000Z,-75.00
2022-09-29T08:41:20.000Z,-75.00
2022-09-29T08:42:22.000Z,-75.00
2022-09-29T08:43:20.000Z,-76.00
2022-09-29T08:44:25.000Z,-77.00
2022-09-29T08:45:23.000Z,-76.00
2022-09-29T08:46:20.000Z,-75.00
2022-09-29T08:47:22.000Z,-75.00
2022-09-29T08:48:20.000Z,-76.00
2022-09-29T08:49:19.000Z,-75.00
2022-09-29T08:50:20.000Z,-75.00
2022-09-29T08:51:20.000Z,-77.00
2022-09-29T08:52:16.000Z,-75.00
2022-09-29T08:53:14.000Z,-75.00
2022-09-29T08:54:26.000Z,-75.00
2022-09-29T08:55:26.000Z,-75.00
2022-09-29T08:56:16.000Z,-75.00
2022-09-29T08:57:16.000Z,-75.00
2022-09-29T08:58:13.000Z,-76.00
2022-09-29T08:59:10.000Z,-75.00
2022-09-29T09:00:13.000Z,-75.00
2022-09-29T09:01:20.000Z,-75.00
2022-09-29T09:02:20.000Z,-76.00
2022-09-29T09:03:30.000Z,-76.00
2022-09-29T09:04:20.000Z,-76.00
2022-09-29T09:05:38.000Z,-76.00
2022-09-29T09:06:20.000Z,-75.00
2022-09-29T09:07:22.000Z,-76.00
2022-09-29T09:08:36.000Z,-75.00
2022-09-29T09:09:27.000Z,-75.00
2022-09-29T09:10:34.000Z,-77.00
2022-09-29T09:11:20.000Z,-76.00
2022-09-29T09:12:34.000Z,-76.00
2022-09-29T09:13:41.000Z,-76.00
2022-09-29T09:14:32.000Z,-76.00
2022-09-29T09:15:24.000Z,-77.00
2022-09-29T09:16:44.000Z,-75.00
2022-09-29T09:17:35.000Z,-76.00
2022-09-29T09:18:33.000Z,-75.00
2022-09-29T09:19:39.000Z,-75.00
2022-09-29T09:20:24.000Z,-76.00
2022-09-29T09:21:23.000Z,-76.00
2022-09-29T09:22:20.000Z,-76.00
2022-09-29T09:23:22.000Z,-77.00
2022-09-29T09:24:21.000Z,-75.00
2022-09-29T09:25:20.000Z,-76.00
2022-09-29T09:26:12.000Z,-75.00
2022-09-29T09:27:16.000Z,-75.00
2022-09-29T09:28:18.000Z,-77.00
2022-09-29T09:29:22.000Z,-76.00
2022-09-29T09:30:17.000Z,-76.00
2022-09-29T09:31:23.000Z,-74.00
2022-09-29T09:32:18.000Z,-75.00
2022-09-29T09:33:20.000Z,-73.00
2022-09-29T09:34:20.000Z,-73.00
2022-09-29T09:35:20.000Z,-72.00
2022-09-29T09:36:18.000Z,-72.00
2022-09-29T09:37:17.000Z,-73.00
2022-09-29T09:38:17.000Z,-74.00
2022-09-29T09:39:23.000Z,-72.00
2022-09-29T09:40:19.000Z,-73.00
2022-09-29T09:41:14.000Z,-74.00
2022-09-29T09:42:18.000Z,-74.00
2022-09-29T09:43:31.000Z,-73.00
2022-09-29T09:44:16.000Z,-73.00
2022-09-29T09:45:24.000Z,-75.00
2022-09-29T09:46:28.000Z,-76.00
2022-09-29T09:47:20.000Z,-76.00
2022-09-29T09:48:23.000Z,-76.00
2022-09-29T09:49:21.000Z,-76.00
2022-09-29T09:50:14.000Z,-75.00
2022-09-29T09:51:30.000Z,-75.00
2022-09-29T09:52:16.000Z,-76.00
2022-09-29T09:53:18.000Z,-77.00
2022-09-29T09:54:22.000Z,-76.00
2022-09-29T09:55:17.000Z,-76.00
2022-09-29T09:56:26.000Z,-76.00
2022-09-29T09:57:20.000Z,-76.00
2022-09-29T09:58:33.000Z,-76.00
2022-09-29T09:59:43.000Z,-77.00
2022-09-29T10:00:31.000Z,-76.00
2022-09-29T10:01:11.000Z,-77.00
2022-09-29T10:02:17.000Z,-76.00
2022-09-29T10:03:12.000Z,-76.00
2022-09-29T10:04:12.000Z,-76.00
2022-09-29T10:05:14.000Z,-76.00
2022-09-29T10:06:10.000Z,-76.00
2022-09-29T10:07:10.000Z,-76.00
2022-09-29T10:08:18.000Z,-75.00
2022-09-29T10:09:14.000Z,-77.00
2022-09-29T10:10:20.000Z,-76.00
2022-09-29T10:11:21.000Z,-76.00
2022-09-29T10:12:16.000Z,-75.00
2022-09-29T10:13:13.000Z,-76.00
2022-09-29T10:14:23.000Z,-76.00
2022-09-29T10:15:20.000Z,-77.00
2022-09-29T10:16:19.000Z,-75.00
2022-09-29T10:17:15.000Z,-76.00
2022-09-29T10:18:18.000Z,-77.00
2022-09-29T10:19:11.000Z,-76.00
2022-09-29T10:20:11.000Z,-75.00
2022-09-29T10:21:36.000Z,-76.00
2022-09-29T10:22:13.000Z,-76.00
2022-09-29T10:23:21.000Z,-76.00
2022-09-29T10:24:21.000Z,-76.00
2022-09-29T10:25:26.000Z,-76.00
2022-09-29T10:26:16.000Z,-75.00
2022-09-29T10:27:17.000Z,-75.00
2022-09-29T10:28:12.000Z,-76.00
2022-09-29T10:29:21.000Z,-77.00
2022-09-29T10:30:18.000Z,-75.00
2022-09-29T10:31:20.000Z,-76.00
2022-09-29T10:32:28.000Z,-76.00
2022-09-29T10:33:15.000Z,-75.00
2022-09-29T10:34:15.000Z,-75.00
2022-09-29T10:35:22.000Z,-75.00
2022-09-29T10:36:11.000Z,-75.00
2022-09-29T10:37:25.000Z,-76.00
2022-09-29T10:38:17.000Z,-75.00
2022-09-29T10:39:31.000Z,-75.00
2022-09-29T10:40:18.000Z,-75.00
2022-09-29T10:41:11.000Z,-77.00
2022-09-29T10:42:20.000Z,-75.00
2022-09-29T10:43:20.000Z,-77.00
2022-09-29T10:44:19.000Z,-78.00
2022-09-29T10:45:17.000Z,-78.00
2022-09-29T10:46:20.000Z,-74.00
2022-09-29T10:47:13.000Z,-75.00
2022-09-29T10:48:13.000Z,-75.00
2022-09-29T10:49:16.000Z,-75.00
2022-09-29T10:50:20.000Z,-74.00
2022-09-29T10:51:21.000Z,-75.00
2022-09-29T10:52:24.000Z,-75.00
2022-09-29T10:53:20.000Z,-75.00
2022-09-29T10:54:14.000Z,-75.00
2022-09-29T10:55:20.000Z,-75.00
2022-09-29T10:56:17.000Z,-75.00
2022-09-29T10:57:13.000Z,-75.00
2022-09-29T10:58:20.000Z,-75.00
2022-09-29T10:59:11.000Z,-75.00
2022-09-29T11:00:20.000Z,-75.00
2022-09-29T11:01:13.000Z,-76.00
2022-09-29T11:02:32.000Z,-74.00
2022-09-29T11:03:18.000Z,-75.00
2022-09-29T11:04:17.000Z,-75.00
2022-09-29T11:05:17.000Z,-75.00
2022-09-29T11:06:12.000Z,-75.00
2022-09-29T11:07:11.000Z,-74.00
2022-09-29T11:08:12.000Z,-75.00
2022-09-29T11:09:28.000Z,-75.00
2022-09-29T11:10:29.000Z,-75.00
2022-09-29T11:11:20.000Z,-74.00
2022-09-29T11:12:20.000Z,-74.00
2022-09-29T11:13:33.000Z,-75.00
2022-09-29T11:14:30.000Z,-75.00
2022-09-29T11:15:26.000Z,-74.00
2022-09-29T11:16:23.000Z,-75.00
2022-09-29T11:17:20.000Z,-74.00
2022-09-29T11:18:20.000Z,-75.00
2022-09-29T11:19:14.000Z,-75.00
2022-09-29T11:20:13.000Z,-75.00
2022-09-29T11:21:33.000Z,-74.00
2022-09-29T11:22:34.000Z,-74.00
2022-09-29T11:23:24.000Z,-74.00
2022-09-29T11:24:20.000Z,-74.00
2022-09-29T11:25:21.000Z,-74.00
2022-09-29T11:26:24.000Z,-75.00
2022-09-29T11:27:20.000Z,-74.00
2022-09-29T11:28:34.000Z,-74.00
2022-09-29T11:29:20.000Z,-74.00
2022-09-29T11:30:16.000Z,-74.00
2022-09-29T11:31:34.000Z,-74.00
2022-09-29T11:32:31.000Z,-75.00
2022-09-29T11:33:23.000Z,-74.00
2022-09-29T11:34:36.000Z,-75.00
2022-09-29T11:35:44.000Z,-74.00
2022-09-29T11:36:21.000Z,-75.00
2022-09-29T11:37:22.000Z,-74.00
2022-09-29T11:38:38.000Z,-74.00
2022-09-29T11:39:27.000Z,-75.00
2022-09-29T11:40:20.000Z,-74.00
2022-09-29T11:41:22.000Z,-75.00
2022-09-29T11:42:20.000Z,-74.00
2022-09-29T11:43:20.000Z,-74.00
2022-09-29T11:44:20.000Z,-76.00
2022-09-29T11:45:20.000Z,-76.00
2022-09-29T11:46:20.000Z,-75.00
2022-09-29T11:47:20.000Z,-75.00
2022-09-29T11:48:33.000Z,-75.00
2022-09-29T11:49:20.000Z,-75.00
2022-09-29T11:50:20.000Z,-75.00
2022-09-29T11:51:25.000Z,-75.00
2022-09-29T11:52:33.000Z,-76.00
2022-09-29T11:53:33.000Z,-74.00
2022-09-29T11:54:46.000Z,-75.00
2022-09-29T11:55:41.000Z,-75.00
2022-09-29T11:56:33.000Z,-74.00
2022-09-29T11:57:31.000Z,-75.00
2022-09-29T11:58:20.000Z,-74.00
2022-09-29T11:59:20.000Z,-74.00
2022-09-29T12:00:13.000Z,-75.00
2022-09-29T12:01:30.000Z,-75.00
2022-09-29T12:02:20.000Z,-75.00
2022-09-29T12:03:20.000Z,-74.00
2022-09-29T12:04:30.000Z,-75.00
2022-09-29T12:05:23.000Z,-75.00
2022-09-29T12:06:22.000Z,-75.00
2022-09-29T12:07:21.000Z,-75.00
2022-09-29T12:08:29.000Z,-75.00
2022-09-29T12:09:39.000Z,-76.00
2022-09-29T12:10:20.000Z,-75.00
2022-09-29T12:11:36.000Z,-75.00
2022-09-29T12:12:25.000Z,-75.00
2022-09-29T12:13:24.000Z,-76.00
2022-09-29T12:14:20.000Z,-75.00
2022-09-29T12:15:21.000Z,-75.00
2022-09-29T12:16:14.000Z,-75.00
2022-09-29T12:17:14.000Z,-75.00
2022-09-29T12:18:16.000Z,-76.00
2022-09-29T12:19:14.000Z,-75.00
2022-09-29T12:20:22.000Z,-75.00
2022-09-29T12:21:19.000Z,-75.00
2022-09-29T12:22:15.000Z,-75.00
2022-09-29T12:23:13.000Z,-76.00
2022-09-29T12:24:18.000Z,-76.00
2022-09-29T12:25:16.000Z,-75.00
2022-09-29T12:26:17.000Z,-75.00
2022-09-29T12:27:17.000Z,-75.00
2022-09-29T12:28:15.000Z,-76.00